JZR101 OKKK-OBBI
Flight info
| Callsign | JZR101 |
|---|---|
| Flight time | 0h 45m |
| Altitude | 27000 |
| Route | BOXIK B416 IMDOX P975 LONOS L703 KOBOK |
| Aircraft | A20N/M-SDE2E3FGHIRWXY/LB1 |
Departure
| Time | 2026-05-04 15:33 |
|---|---|
| Airport | Kuwait International Airport (OKKK) |
Arrival
| Time | 2026-05-04 16:19 |
|---|---|
| Airport | Bahrain International Airport (OBBI) |
| Time | Latitude | Longitude | Altitude | Speed | Heading |
|---|---|---|---|---|---|
| 2026-05-04 14:32 | 29.24015 | 47.97315 | 167 ft | 0 kts | 335° |
| 2026-05-04 15:22 | 29.24013 | 47.97316 | 166 ft | 2 kts | 335° |
| 2026-05-04 15:23 | 29.24000 | 47.97323 | 166 ft | 2 kts | 335° |
| 2026-05-04 15:23 | 29.23986 | 47.97330 | 166 ft | 2 kts | 335° |
| 2026-05-04 15:23 | 29.23973 | 47.97338 | 166 ft | 2 kts | 337° |
| 2026-05-04 15:23 | 29.23958 | 47.97342 | 166 ft | 2 kts | 0° |
| 2026-05-04 15:24 | 29.23933 | 47.97334 | 166 ft | 0 kts | 42° |
| 2026-05-04 15:26 | 29.23934 | 47.97341 | 166 ft | 1 kts | 83° |
| 2026-05-04 15:26 | 29.23912 | 47.97362 | 166 ft | 8 kts | 159° |
| 2026-05-04 15:26 | 29.23727 | 47.97448 | 166 ft | 18 kts | 166° |
| 2026-05-04 15:27 | 29.23629 | 47.97386 | 166 ft | 19 kts | 247° |
| 2026-05-04 15:27 | 29.23513 | 47.97093 | 166 ft | 19 kts | 245° |
| 2026-05-04 15:28 | 29.23404 | 47.96819 | 164 ft | 0 kts | 247° |
| 2026-05-04 15:28 | 29.23404 | 47.96818 | 164 ft | 1 kts | 247° |
| 2026-05-04 15:29 | 29.23398 | 47.96791 | 164 ft | 6 kts | 267° |
| 2026-05-04 15:30 | 29.23897 | 47.96481 | 163 ft | 29 kts | 333° |
| 2026-05-04 15:30 | 29.23991 | 47.96193 | 159 ft | 18 kts | 179° |
| 2026-05-04 15:31 | 29.23950 | 47.96205 | 159 ft | 0 kts | 156° |
| 2026-05-04 15:32 | 29.23899 | 47.96231 | 159 ft | 33 kts | 154° |
| 2026-05-04 15:32 | 29.22632 | 47.96916 | 167 ft | 156 kts | 154° |
| 2026-05-04 15:33 | 29.20499 | 47.98019 | 1042 ft | 183 kts | 152° |
| 2026-05-04 15:34 | 29.17134 | 48.01177 | 2297 ft | 248 kts | 108° |
| 2026-05-04 15:34 | 29.16633 | 48.03126 | 2954 ft | 261 kts | 104° |
| 2026-05-04 15:34 | 29.15742 | 48.07446 | 3911 ft | 306 kts | 103° |
| 2026-05-04 15:35 | 29.15137 | 48.12616 | 4928 ft | 335 kts | 89° |
| 2026-05-04 15:35 | 29.14942 | 48.15224 | 6131 ft | 324 kts | 105° |
| 2026-05-04 15:35 | 29.14067 | 48.17474 | 7291 ft | 309 kts | 122° |
| 2026-05-04 15:36 | 29.11857 | 48.21629 | 9313 ft | 304 kts | 124° |
| 2026-05-04 15:36 | 29.10730 | 48.23712 | 9982 ft | 313 kts | 124° |
| 2026-05-04 15:36 | 29.09554 | 48.25873 | 10408 ft | 331 kts | 124° |
| 2026-05-04 15:37 | 29.08310 | 48.28156 | 10635 ft | 354 kts | 124° |
| 2026-05-04 15:37 | 29.06962 | 48.30634 | 11069 ft | 367 kts | 124° |
| 2026-05-04 15:37 | 29.05612 | 48.33122 | 11774 ft | 371 kts | 124° |
| 2026-05-04 15:37 | 29.04260 | 48.35617 | 12489 ft | 376 kts | 124° |
| 2026-05-04 15:38 | 29.02874 | 48.38169 | 13215 ft | 381 kts | 125° |
| 2026-05-04 15:38 | 29.01467 | 48.40756 | 13893 ft | 385 kts | 125° |
| 2026-05-04 15:38 | 29.00042 | 48.43373 | 14445 ft | 390 kts | 125° |
| 2026-05-04 15:38 | 28.98597 | 48.46022 | 14771 ft | 396 kts | 125° |
| 2026-05-04 15:39 | 28.97137 | 48.48699 | 15472 ft | 397 kts | 124° |
| 2026-05-04 15:39 | 28.95670 | 48.51388 | 16137 ft | 401 kts | 124° |
| 2026-05-04 15:39 | 28.92688 | 48.56847 | 17383 ft | 409 kts | 124° |
| 2026-05-04 15:40 | 28.91173 | 48.59616 | 18005 ft | 413 kts | 124° |
| 2026-05-04 15:40 | 28.89643 | 48.62410 | 18557 ft | 416 kts | 124° |
| 2026-05-04 15:40 | 28.88108 | 48.65214 | 19135 ft | 418 kts | 124° |
| 2026-05-04 15:40 | 28.86563 | 48.68034 | 19736 ft | 420 kts | 124° |
| 2026-05-04 15:41 | 28.85011 | 48.70866 | 20288 ft | 422 kts | 125° |
| 2026-05-04 15:41 | 28.83448 | 48.73715 | 20850 ft | 425 kts | 125° |
| 2026-05-04 15:41 | 28.81874 | 48.76581 | 21396 ft | 428 kts | 125° |
| 2026-05-04 15:41 | 28.80291 | 48.79462 | 21949 ft | 430 kts | 125° |
| 2026-05-04 15:42 | 28.78755 | 48.82408 | 22502 ft | 434 kts | 123° |
| 2026-05-04 15:42 | 28.77288 | 48.85434 | 23032 ft | 438 kts | 122° |
| 2026-05-04 15:42 | 28.75827 | 48.88491 | 23522 ft | 441 kts | 122° |
| 2026-05-04 15:42 | 28.74349 | 48.91562 | 23925 ft | 445 kts | 122° |
| 2026-05-04 15:43 | 28.72845 | 48.94657 | 24330 ft | 448 kts | 123° |
| 2026-05-04 15:43 | 28.71320 | 48.97775 | 24725 ft | 452 kts | 123° |
| 2026-05-04 15:43 | 28.69780 | 49.00909 | 25097 ft | 456 kts | 123° |
| 2026-05-04 15:43 | 28.68223 | 49.04073 | 25486 ft | 459 kts | 123° |
| 2026-05-04 15:44 | 28.66655 | 49.07256 | 25868 ft | 463 kts | 123° |
| 2026-05-04 15:44 | 28.65075 | 49.10460 | 26236 ft | 467 kts | 123° |
| 2026-05-04 15:44 | 28.63479 | 49.13694 | 26591 ft | 471 kts | 123° |
| 2026-05-04 15:44 | 28.61869 | 49.16956 | 26744 ft | 473 kts | 123° |
| 2026-05-04 15:45 | 28.60252 | 49.20208 | 26771 ft | 471 kts | 126° |
| 2026-05-04 15:45 | 28.58304 | 49.23150 | 26773 ft | 463 kts | 139° |
| 2026-05-04 15:45 | 28.55899 | 49.25536 | 26774 ft | 455 kts | 151° |
| 2026-05-04 15:45 | 28.53187 | 49.27310 | 26779 ft | 448 kts | 158° |
| 2026-05-04 15:46 | 28.50504 | 49.29145 | 26769 ft | 454 kts | 150° |
| 2026-05-04 15:46 | 28.48002 | 49.31383 | 26772 ft | 460 kts | 144° |
| 2026-05-04 15:46 | 28.45606 | 49.33788 | 26773 ft | 460 kts | 144° |
| 2026-05-04 15:46 | 28.43204 | 49.36189 | 26772 ft | 459 kts | 144° |
| 2026-05-04 15:47 | 28.40801 | 49.38580 | 26767 ft | 460 kts | 144° |
| 2026-05-04 15:47 | 28.38390 | 49.40973 | 26775 ft | 460 kts | 144° |
| 2026-05-04 15:47 | 28.35977 | 49.43366 | 26772 ft | 460 kts | 144° |
| 2026-05-04 15:47 | 28.33567 | 49.45753 | 26778 ft | 460 kts | 144° |
| 2026-05-04 15:48 | 28.31156 | 49.48140 | 26775 ft | 460 kts | 144° |
| 2026-05-04 15:48 | 28.28727 | 49.50540 | 26769 ft | 460 kts | 144° |
| 2026-05-04 15:48 | 28.23902 | 49.55293 | 26774 ft | 463 kts | 144° |
| 2026-05-04 15:49 | 28.21453 | 49.57659 | 26775 ft | 460 kts | 147° |
| 2026-05-04 15:49 | 28.18912 | 49.59848 | 26773 ft | 459 kts | 148° |
| 2026-05-04 15:49 | 28.16372 | 49.62029 | 26775 ft | 459 kts | 148° |
| 2026-05-04 15:49 | 28.13824 | 49.64220 | 26774 ft | 459 kts | 148° |
| 2026-05-04 15:50 | 28.11284 | 49.66403 | 26777 ft | 459 kts | 148° |
| 2026-05-04 15:50 | 28.08739 | 49.68590 | 26756 ft | 459 kts | 148° |
| 2026-05-04 15:50 | 28.06189 | 49.70778 | 26781 ft | 460 kts | 148° |
| 2026-05-04 15:50 | 28.03631 | 49.72956 | 26775 ft | 459 kts | 149° |
| 2026-05-04 15:51 | 28.01017 | 49.75027 | 26801 ft | 458 kts | 151° |
| 2026-05-04 15:51 | 27.98376 | 49.77047 | 26776 ft | 458 kts | 152° |
| 2026-05-04 15:51 | 27.95736 | 49.79059 | 26779 ft | 459 kts | 152° |
| 2026-05-04 15:51 | 27.93096 | 49.81084 | 26779 ft | 459 kts | 151° |
| 2026-05-04 15:52 | 27.90461 | 49.83118 | 26759 ft | 459 kts | 151° |
| 2026-05-04 15:52 | 27.87827 | 49.85157 | 26777 ft | 459 kts | 150° |
| 2026-05-04 15:52 | 27.85190 | 49.87202 | 26706 ft | 460 kts | 150° |
| 2026-05-04 15:52 | 27.82557 | 49.89245 | 26465 ft | 458 kts | 150° |
| 2026-05-04 15:53 | 27.79940 | 49.91274 | 26219 ft | 455 kts | 150° |
| 2026-05-04 15:53 | 27.77338 | 49.93290 | 25988 ft | 453 kts | 150° |
| 2026-05-04 15:53 | 27.74747 | 49.95294 | 25751 ft | 451 kts | 150° |
| 2026-05-04 15:53 | 27.72163 | 49.97290 | 25509 ft | 449 kts | 150° |
| 2026-05-04 15:54 | 27.69592 | 49.99275 | 25270 ft | 448 kts | 150° |
| 2026-05-04 15:54 | 27.67027 | 50.01255 | 25038 ft | 446 kts | 150° |
| 2026-05-04 15:54 | 27.65329 | 50.02566 | 24883 ft | 445 kts | 150° |
| 2026-05-04 15:54 | 27.62780 | 50.04532 | 24656 ft | 443 kts | 150° |
| 2026-05-04 15:55 | 27.59421 | 50.07122 | 24354 ft | 441 kts | 150° |
| 2026-05-04 15:55 | 27.57715 | 50.08437 | 24208 ft | 439 kts | 150° |
| 2026-05-04 15:55 | 27.54374 | 50.11008 | 23746 ft | 439 kts | 149° |
| 2026-05-04 15:55 | 27.51858 | 50.12943 | 23212 ft | 436 kts | 149° |
| 2026-05-04 15:56 | 27.49364 | 50.14860 | 22658 ft | 431 kts | 149° |
| 2026-05-04 15:56 | 27.47703 | 50.16138 | 22326 ft | 427 kts | 149° |
| 2026-05-04 15:56 | 27.45269 | 50.18009 | 21839 ft | 420 kts | 149° |
| 2026-05-04 15:56 | 27.42879 | 50.19871 | 21373 ft | 415 kts | 148° |
| 2026-05-04 15:57 | 27.40550 | 50.21761 | 20907 ft | 410 kts | 147° |
| 2026-05-04 15:57 | 27.38259 | 50.23639 | 20448 ft | 405 kts | 147° |
| 2026-05-04 15:57 | 27.36023 | 50.25469 | 19996 ft | 400 kts | 147° |
| 2026-05-04 15:57 | 27.33752 | 50.27319 | 19543 ft | 395 kts | 147° |
| 2026-05-04 15:58 | 27.31537 | 50.29117 | 19105 ft | 391 kts | 147° |
| 2026-05-04 15:58 | 27.29366 | 50.30874 | 18673 ft | 387 kts | 147° |
| 2026-05-04 15:58 | 27.27165 | 50.32654 | 18239 ft | 384 kts | 147° |
| 2026-05-04 15:58 | 27.25033 | 50.34376 | 17778 ft | 380 kts | 146° |
| 2026-05-04 15:59 | 27.22865 | 50.36126 | 17293 ft | 377 kts | 146° |
| 2026-05-04 15:59 | 27.20747 | 50.37836 | 16798 ft | 374 kts | 146° |
| 2026-05-04 15:59 | 27.18667 | 50.39514 | 16342 ft | 371 kts | 146° |
| 2026-05-04 15:59 | 27.16579 | 50.41199 | 15884 ft | 368 kts | 146° |
| 2026-05-04 16:00 | 27.14479 | 50.42893 | 15407 ft | 366 kts | 146° |
| 2026-05-04 16:00 | 27.12429 | 50.44545 | 15159 ft | 357 kts | 146° |
| 2026-05-04 16:00 | 27.10460 | 50.46133 | 14996 ft | 340 kts | 146° |
| 2026-05-04 16:00 | 27.08613 | 50.47623 | 14837 ft | 322 kts | 146° |
| 2026-05-04 16:01 | 27.06833 | 50.49058 | 14584 ft | 310 kts | 146° |
| 2026-05-04 16:01 | 27.05102 | 50.50450 | 14247 ft | 303 kts | 145° |
| 2026-05-04 16:01 | 27.03369 | 50.51842 | 14021 ft | 309 kts | 145° |
| 2026-05-04 16:01 | 27.01620 | 50.53247 | 13789 ft | 308 kts | 145° |
| 2026-05-04 16:02 | 26.99886 | 50.54641 | 13568 ft | 308 kts | 145° |
| 2026-05-04 16:02 | 26.98048 | 50.55896 | 13315 ft | 310 kts | 160° |
| 2026-05-04 16:02 | 26.93901 | 50.56548 | 12818 ft | 300 kts | 181° |
| 2026-05-04 16:03 | 26.91837 | 50.56887 | 12565 ft | 303 kts | 162° |
| 2026-05-04 16:03 | 26.89884 | 50.57786 | 12323 ft | 304 kts | 158° |
| 2026-05-04 16:03 | 26.87970 | 50.58778 | 12070 ft | 302 kts | 156° |
| 2026-05-04 16:03 | 26.86069 | 50.59769 | 11833 ft | 301 kts | 157° |
| 2026-05-04 16:04 | 26.84162 | 50.60740 | 11594 ft | 300 kts | 158° |
| 2026-05-04 16:04 | 26.80344 | 50.62632 | 10908 ft | 300 kts | 158° |
| 2026-05-04 16:04 | 26.78437 | 50.63565 | 10551 ft | 299 kts | 159° |
| 2026-05-04 16:05 | 26.76537 | 50.64494 | 10211 ft | 297 kts | 159° |
| 2026-05-04 16:05 | 26.74712 | 50.65384 | 9862 ft | 297 kts | 158° |
| 2026-05-04 16:05 | 26.70934 | 50.67226 | 9122 ft | 295 kts | 158° |
| 2026-05-04 16:06 | 26.69053 | 50.68142 | 8762 ft | 294 kts | 158° |
| 2026-05-04 16:06 | 26.64108 | 50.70548 | 8003 ft | 286 kts | 158° |
| 2026-05-04 16:07 | 26.61688 | 50.71726 | 7642 ft | 287 kts | 157° |
| 2026-05-04 16:07 | 26.56216 | 50.74385 | 6649 ft | 285 kts | 157° |
| 2026-05-04 16:08 | 26.54400 | 50.75267 | 6339 ft | 284 kts | 157° |
| 2026-05-04 16:08 | 26.49011 | 50.77881 | 5402 ft | 279 kts | 156° |
| 2026-05-04 16:09 | 26.45479 | 50.79593 | 5020 ft | 277 kts | 156° |
| 2026-05-04 16:09 | 26.42058 | 50.81252 | 4899 ft | 258 kts | 156° |
| 2026-05-04 16:10 | 26.38811 | 50.82825 | 4327 ft | 254 kts | 155° |
| 2026-05-04 16:11 | 26.34019 | 50.85146 | 3425 ft | 247 kts | 155° |
| 2026-05-04 16:11 | 26.32448 | 50.85907 | 3137 ft | 246 kts | 154° |
| 2026-05-04 16:12 | 26.27780 | 50.88164 | 2204 ft | 244 kts | 155° |
| 2026-05-04 16:12 | 26.23376 | 50.87058 | 2009 ft | 221 kts | 213° |
| 2026-05-04 16:13 | 26.20750 | 50.85337 | 2003 ft | 218 kts | 213° |
| 2026-05-04 16:13 | 26.18832 | 50.82948 | 2002 ft | 206 kts | 266° |
| 2026-05-04 16:14 | 26.18678 | 50.79905 | 1993 ft | 176 kts | 272° |
| 2026-05-04 16:14 | 26.19116 | 50.77387 | 2005 ft | 165 kts | 302° |
| 2026-05-04 16:15 | 26.20861 | 50.74231 | 1901 ft | 145 kts | 308° |
| 2026-05-04 16:16 | 26.21875 | 50.72465 | 1550 ft | 133 kts | 308° |
| 2026-05-04 16:16 | 26.23342 | 50.69902 | 1039 ft | 128 kts | 306° |
| 2026-05-04 16:17 | 26.24311 | 50.68211 | 739 ft | 131 kts | 306° |
| 2026-05-04 16:18 | 26.25766 | 50.65666 | 242 ft | 124 kts | 304° |
| 2026-05-04 16:18 | 26.26240 | 50.64822 | 71 ft | 130 kts | 302° |
| 2026-05-04 16:19 | 26.27188 | 50.63189 | 15 ft | 33 kts | 300° |
| 2026-05-04 16:19 | 26.27255 | 50.62883 | 17 ft | 9 kts | 262° |
| 2026-05-04 16:20 | 26.27116 | 50.62908 | 22 ft | 9 kts | 187° |
| 2026-05-04 16:20 | 26.27086 | 50.62893 | 22 ft | 8 kts | 209° |
| 2026-05-04 16:21 | 26.26942 | 50.62839 | 23 ft | 3 kts | 210° |
| 2026-05-04 16:22 | 26.26936 | 50.62836 | 22 ft | 0 kts | 212° |